Terminal Aerodrome Forecast
Issued by NWS Detroit/Pontiac, MI

Home | Current Version | Previous Version | Text Only | Print | Product List | Glossary On
Versions: 1 2 3 4 5 6 7 8 9 10 11 12 13 14 15 16 17 18 19 20 21 22 23 24 25
000
FTUS43 KDTX 050805 AAA
TAFFNT
TAF AMD
KFNT 050805Z 0508/0606 VRB03KT 2SM BR SCT002 BKN060
      TEMPO 0508/0511 1/4SM FG BKN002
     FM051400 26007KT P6SM SCT040 BKN150
     FM051900 25008KT P6SM BKN040 BKN200
     FM060000 VRB04KT P6SM SCT050 BKN200=

USA.gov is the U.S. government's official web portal to all federal, state and local government web resources and services.